sensor_id;sensor_type;location;lat;lon;timestamp;P1;durP1;ratioP1;P2;durP2;ratioP2
26211;SDS011;13951;49.516;6.094;2023-02-01T00:00:33;6.23;;;4.03;;
26211;SDS011;13951;49.516;6.094;2023-02-01T00:03:06;6.00;;;3.80;;
26211;SDS011;13951;49.516;6.094;2023-02-01T00:05:40;7.73;;;4.37;;
26211;SDS011;13951;49.516;6.094;2023-02-01T00:08:13;7.93;;;4.30;;
26211;SDS011;13951;49.516;6.094;2023-02-01T00:10:46;6.13;;;3.77;;
26211;SDS011;13951;49.516;6.094;2023-02-01T00:13:18;8.77;;;4.03;;
26211;SDS011;13951;49.516;6.094;2023-02-01T00:15:51;6.93;;;3.70;;
26211;SDS011;13951;49.516;6.094;2023-02-01T00:18:24;11.10;;;3.27;;
26211;SDS011;13951;49.516;6.094;2023-02-01T00:20:57;8.17;;;4.63;;
26211;SDS011;13951;49.516;6.094;2023-02-01T00:23:34;5.17;;;4.03;;
26211;SDS011;13951;49.516;6.094;2023-02-01T00:26:09;7.27;;;4.07;;
26211;SDS011;13951;49.516;6.094;2023-02-01T00:28:51;13.30;;;4.57;;
26211;SDS011;13951;49.516;6.094;2023-02-01T00:31:24;10.43;;;3.97;;
26211;SDS011;13951;49.516;6.094;2023-02-01T00:34:00;6.80;;;4.37;;
26211;SDS011;13951;49.516;6.094;2023-02-01T00:36:33;5.57;;;3.90;;
26211;SDS011;13951;49.516;6.094;2023-02-01T00:39:06;8.57;;;4.60;;
26211;SDS011;13951;49.516;6.094;2023-02-01T00:41:39;6.77;;;4.67;;
26211;SDS011;13951;49.516;6.094;2023-02-01T00:44:12;7.53;;;4.50;;
26211;SDS011;13951;49.516;6.094;2023-02-01T00:46:45;12.70;;;4.30;;
26211;SDS011;13951;49.516;6.094;2023-02-01T00:49:18;9.83;;;4.87;;
26211;SDS011;13951;49.516;6.094;2023-02-01T00:51:51;10.80;;;5.40;;
26211;SDS011;13951;49.516;6.094;2023-02-01T00:54:24;14.25;;;7.03;;
26211;SDS011;13951;49.516;6.094;2023-02-01T00:56:57;10.17;;;5.40;;
26211;SDS011;13951;49.516;6.094;2023-02-01T00:59:29;11.20;;;5.30;;
26211;SDS011;13951;49.516;6.094;2023-02-01T01:02:02;8.87;;;4.80;;
26211;SDS011;13951;49.516;6.094;2023-02-01T01:04:35;6.60;;;4.37;;
26211;SDS011;13951;49.516;6.094;2023-02-01T01:07:07;9.83;;;5.07;;
26211;SDS011;13951;49.516;6.094;2023-02-01T01:09:40;9.30;;;4.43;;
26211;SDS011;13951;49.516;6.094;2023-02-01T01:12:13;11.77;;;6.60;;
26211;SDS011;13951;49.516;6.094;2023-02-01T01:14:46;8.60;;;5.27;;
26211;SDS011;13951;49.516;6.094;2023-02-01T01:17:18;7.20;;;5.00;;
26211;SDS011;13951;49.516;6.094;2023-02-01T01:19:51;6.87;;;4.67;;
26211;SDS011;13951;49.516;6.094;2023-02-01T01:22:24;7.80;;;4.63;;
26211;SDS011;13951;49.516;6.094;2023-02-01T01:24:57;11.77;;;5.33;;
26211;SDS011;13951;49.516;6.094;2023-02-01T01:27:29;9.70;;;5.13;;
26211;SDS011;13951;49.516;6.094;2023-02-01T01:30:02;9.43;;;4.47;;
26211;SDS011;13951;49.516;6.094;2023-02-01T01:32:35;11.33;;;5.37;;
26211;SDS011;13951;49.516;6.094;2023-02-01T01:35:08;7.63;;;4.73;;
26211;SDS011;13951;49.516;6.094;2023-02-01T01:37:41;7.27;;;4.60;;
26211;SDS011;13951;49.516;6.094;2023-02-01T01:40:14;14.70;;;5.43;;
26211;SDS011;13951;49.516;6.094;2023-02-01T01:42:48;9.37;;;5.60;;
26211;SDS011;13951;49.516;6.094;2023-02-01T01:45:29;8.07;;;5.03;;
26211;SDS011;13951;49.516;6.094;2023-02-01T01:48:14;8.43;;;4.47;;
26211;SDS011;13951;49.516;6.094;2023-02-01T01:50:58;10.33;;;5.03;;
26211;SDS011;13951;49.516;6.094;2023-02-01T01:53:37;8.33;;;5.47;;
26211;SDS011;13951;49.516;6.094;2023-02-01T01:56:16;8.60;;;4.47;;
26211;SDS011;13951;49.516;6.094;2023-02-01T01:58:49;7.97;;;4.23;;
26211;SDS011;13951;49.516;6.094;2023-02-01T02:01:24;9.63;;;4.67;;
26211;SDS011;13951;49.516;6.094;2023-02-01T02:03:57;9.87;;;4.37;;
26211;SDS011;13951;49.516;6.094;2023-02-01T02:06:45;9.00;;;4.27;;
26211;SDS011;13951;49.516;6.094;2023-02-01T02:09:24;9.83;;;4.60;;
26211;SDS011;13951;49.516;6.094;2023-02-01T02:11:56;12.20;;;5.20;;
26211;SDS011;13951;49.516;6.094;2023-02-01T02:14:30;8.67;;;5.13;;
26211;SDS011;13951;49.516;6.094;2023-02-01T02:17:07;8.13;;;4.07;;
26211;SDS011;13951;49.516;6.094;2023-02-01T02:36:29;7.70;;;4.57;;
26211;SDS011;13951;49.516;6.094;2023-02-01T02:39:07;7.00;;;3.60;;
26211;SDS011;13951;49.516;6.094;2023-02-01T02:41:47;7.03;;;4.03;;
26211;SDS011;13951;49.516;6.094;2023-02-01T02:44:44;9.40;;;4.33;;
26211;SDS011;13951;49.516;6.094;2023-02-01T02:47:42;7.53;;;4.37;;
26211;SDS011;13951;49.516;6.094;2023-02-01T02:50:27;10.67;;;4.60;;
26211;SDS011;13951;49.516;6.094;2023-02-01T02:53:30;9.83;;;4.37;;
26211;SDS011;13951;49.516;6.094;2023-02-01T02:56:26;9.67;;;4.27;;
26211;SDS011;13951;49.516;6.094;2023-02-01T02:59:19;11.20;;;4.60;;
26211;SDS011;13951;49.516;6.094;2023-02-01T03:02:15;10.70;;;4.33;;
26211;SDS011;13951;49.516;6.094;2023-02-01T03:05:07;10.13;;;4.30;;
26211;SDS011;13951;49.516;6.094;2023-02-01T03:10:23;9.93;;;3.90;;
26211;SDS011;13951;49.516;6.094;2023-02-01T03:13:02;8.50;;;4.83;;
26211;SDS011;13951;49.516;6.094;2023-02-01T03:19:15;9.27;;;4.50;;
26211;SDS011;13951;49.516;6.094;2023-02-01T03:22:00;8.13;;;4.40;;
26211;SDS011;13951;49.516;6.094;2023-02-01T03:24:47;8.33;;;4.67;;
26211;SDS011;13951;49.516;6.094;2023-02-01T03:30:38;6.33;;;4.03;;
26211;SDS011;13951;49.516;6.094;2023-02-01T03:33:17;10.27;;;4.80;;
26211;SDS011;13951;49.516;6.094;2023-02-01T03:36:01;10.00;;;4.73;;
26211;SDS011;13951;49.516;6.094;2023-02-01T03:44:23;10.67;;;4.70;;
26211;SDS011;13951;49.516;6.094;2023-02-01T03:47:06;12.77;;;6.50;;
26211;SDS011;13951;49.516;6.094;2023-02-01T03:49:43;5.90;;;3.73;;
26211;SDS011;13951;49.516;6.094;2023-02-01T03:52:28;10.83;;;4.57;;
26211;SDS011;13951;49.516;6.094;2023-02-01T03:55:15;11.83;;;4.67;;
26211;SDS011;13951;49.516;6.094;2023-02-01T03:57:53;10.80;;;4.27;;
26211;SDS011;13951;49.516;6.094;2023-02-01T04:00:35;7.20;;;3.60;;
26211;SDS011;13951;49.516;6.094;2023-02-01T04:03:08;7.17;;;4.13;;
26211;SDS011;13951;49.516;6.094;2023-02-01T04:05:41;11.15;;;5.75;;
26211;SDS011;13951;49.516;6.094;2023-02-01T04:08:15;9.60;;;4.47;;
26211;SDS011;13951;49.516;6.094;2023-02-01T04:10:48;7.93;;;4.77;;
26211;SDS011;13951;49.516;6.094;2023-02-01T04:13:21;8.37;;;4.80;;
26211;SDS011;13951;49.516;6.094;2023-02-01T04:15:53;12.40;;;4.10;;
26211;SDS011;13951;49.516;6.094;2023-02-01T04:18:26;8.93;;;4.30;;
26211;SDS011;13951;49.516;6.094;2023-02-01T04:20:59;8.77;;;3.40;;
26211;SDS011;13951;49.516;6.094;2023-02-01T04:23:33;8.80;;;3.80;;
26211;SDS011;13951;49.516;6.094;2023-02-01T04:26:05;7.53;;;3.43;;
26211;SDS011;13951;49.516;6.094;2023-02-01T04:28:38;6.87;;;3.60;;
26211;SDS011;13951;49.516;6.094;2023-02-01T04:31:12;10.37;;;4.13;;
26211;SDS011;13951;49.516;6.094;2023-02-01T04:33:44;10.37;;;3.77;;
26211;SDS011;13951;49.516;6.094;2023-02-01T04:36:17;5.37;;;3.47;;
26211;SDS011;13951;49.516;6.094;2023-02-01T04:38:52;14.17;;;4.33;;
26211;SDS011;13951;49.516;6.094;2023-02-01T04:41:25;7.87;;;4.07;;
26211;SDS011;13951;49.516;6.094;2023-02-01T04:43:58;9.03;;;3.87;;
26211;SDS011;13951;49.516;6.094;2023-02-01T04:46:31;11.30;;;3.90;;
26211;SDS011;13951;49.516;6.094;2023-02-01T04:49:03;7.47;;;3.47;;
26211;SDS011;13951;49.516;6.094;2023-02-01T04:51:36;6.03;;;2.80;;
26211;SDS011;13951;49.516;6.094;2023-02-01T04:54:09;9.37;;;3.77;;
26211;SDS011;13951;49.516;6.094;2023-02-01T04:56:45;7.27;;;3.57;;
26211;SDS011;13951;49.516;6.094;2023-02-01T04:59:18;7.87;;;3.47;;
26211;SDS011;13951;49.516;6.094;2023-02-01T05:01:50;8.07;;;3.47;;
26211;SDS011;13951;49.516;6.094;2023-02-01T05:04:23;8.07;;;4.27;;
26211;SDS011;13951;49.516;6.094;2023-02-01T05:06:56;6.67;;;3.50;;
26211;SDS011;13951;49.516;6.094;2023-02-01T05:09:29;8.53;;;3.87;;
26211;SDS011;13951;49.516;6.094;2023-02-01T05:12:02;9.73;;;3.77;;
26211;SDS011;13951;49.516;6.094;2023-02-01T05:14:53;13.53;;;4.00;;
26211;SDS011;13951;49.516;6.094;2023-02-01T05:17:26;8.97;;;3.80;;
26211;SDS011;13951;49.516;6.094;2023-02-01T05:19:58;8.30;;;3.67;;
26211;SDS011;13951;49.516;6.094;2023-02-01T05:22:31;11.17;;;3.70;;
26211;SDS011;13951;49.516;6.094;2023-02-01T05:25:04;8.97;;;3.30;;
26211;SDS011;13951;49.516;6.094;2023-02-01T05:27:39;9.33;;;3.43;;
26211;SDS011;13951;49.516;6.094;2023-02-01T05:30:12;6.20;;;2.80;;
26211;SDS011;13951;49.516;6.094;2023-02-01T05:32:45;6.77;;;2.87;;
26211;SDS011;13951;49.516;6.094;2023-02-01T05:35:22;9.33;;;2.93;;
26211;SDS011;13951;49.516;6.094;2023-02-01T05:37:55;13.63;;;3.73;;
26211;SDS011;13951;49.516;6.094;2023-02-01T05:40:28;8.93;;;2.60;;
26211;SDS011;13951;49.516;6.094;2023-02-01T05:43:00;11.27;;;3.00;;
26211;SDS011;13951;49.516;6.094;2023-02-01T05:45:33;8.23;;;2.50;;
26211;SDS011;13951;49.516;6.094;2023-02-01T05:48:06;8.00;;;2.50;;
26211;SDS011;13951;49.516;6.094;2023-02-01T05:50:39;6.30;;;2.27;;
26211;SDS011;13951;49.516;6.094;2023-02-01T05:53:13;7.77;;;2.37;;
26211;SDS011;13951;49.516;6.094;2023-02-01T05:55:46;8.90;;;2.97;;
26211;SDS011;13951;49.516;6.094;2023-02-01T05:58:19;11.00;;;3.37;;
26211;SDS011;13951;49.516;6.094;2023-02-01T06:00:52;6.97;;;2.53;;
26211;SDS011;13951;49.516;6.094;2023-02-01T06:03:25;5.43;;;2.73;;
26211;SDS011;13951;49.516;6.094;2023-02-01T06:05:58;5.73;;;2.40;;
26211;SDS011;13951;49.516;6.094;2023-02-01T06:08:32;6.13;;;2.67;;
26211;SDS011;13951;49.516;6.094;2023-02-01T06:11:05;7.17;;;2.37;;
26211;SDS011;13951;49.516;6.094;2023-02-01T06:13:38;7.33;;;2.53;;
26211;SDS011;13951;49.516;6.094;2023-02-01T06:16:10;7.87;;;2.27;;
26211;SDS011;13951;49.516;6.094;2023-02-01T06:18:43;7.13;;;2.30;;
26211;SDS011;13951;49.516;6.094;2023-02-01T06:21:16;7.27;;;2.70;;
26211;SDS011;13951;49.516;6.094;2023-02-01T06:23:55;9.37;;;2.67;;
26211;SDS011;13951;49.516;6.094;2023-02-01T06:26:29;6.23;;;2.03;;
26211;SDS011;13951;49.516;6.094;2023-02-01T06:29:02;4.00;;;1.60;;
26211;SDS011;13951;49.516;6.094;2023-02-01T06:31:35;7.57;;;2.03;;
26211;SDS011;13951;49.516;6.094;2023-02-01T06:34:08;9.00;;;1.93;;
26211;SDS011;13951;49.516;6.094;2023-02-01T06:36:41;8.83;;;2.03;;
26211;SDS011;13951;49.516;6.094;2023-02-01T06:39:14;11.50;;;2.60;;
26211;SDS011;13951;49.516;6.094;2023-02-01T06:41:48;4.47;;;1.80;;
26211;SDS011;13951;49.516;6.094;2023-02-01T06:44:21;9.70;;;3.10;;
26211;SDS011;13951;49.516;6.094;2023-02-01T06:46:54;12.63;;;2.17;;
26211;SDS011;13951;49.516;6.094;2023-02-01T06:49:28;7.80;;;2.33;;
26211;SDS011;13951;49.516;6.094;2023-02-01T06:52:01;10.37;;;1.90;;
26211;SDS011;13951;49.516;6.094;2023-02-01T06:54:47;7.97;;;1.73;;
26211;SDS011;13951;49.516;6.094;2023-02-01T06:57:20;12.33;;;2.43;;
26211;SDS011;13951;49.516;6.094;2023-02-01T06:59:52;4.90;;;1.67;;
26211;SDS011;13951;49.516;6.094;2023-02-01T07:02:25;6.97;;;1.57;;
26211;SDS011;13951;49.516;6.094;2023-02-01T07:04:58;2.60;;;1.70;;
26211;SDS011;13951;49.516;6.094;2023-02-01T07:07:31;7.60;;;2.37;;
26211;SDS011;13951;49.516;6.094;2023-02-01T07:10:03;8.77;;;1.67;;
26211;SDS011;13951;49.516;6.094;2023-02-01T07:12:36;7.77;;;2.17;;
26211;SDS011;13951;49.516;6.094;2023-02-01T07:15:09;8.10;;;2.10;;
26211;SDS011;13951;49.516;6.094;2023-02-01T07:17:42;5.67;;;1.70;;
26211;SDS011;13951;49.516;6.094;2023-02-01T07:20:16;3.87;;;1.50;;
26211;SDS011;13951;49.516;6.094;2023-02-01T07:22:54;5.07;;;1.50;;
26211;SDS011;13951;49.516;6.094;2023-02-01T07:25:27;5.70;;;1.90;;
26211;SDS011;13951;49.516;6.094;2023-02-01T07:28:00;11.40;;;2.30;;
26211;SDS011;13951;49.516;6.094;2023-02-01T07:30:33;10.83;;;2.23;;
26211;SDS011;13951;49.516;6.094;2023-02-01T07:33:06;7.70;;;2.10;;
26211;SDS011;13951;49.516;6.094;2023-02-01T07:35:39;7.23;;;1.83;;
26211;SDS011;13951;49.516;6.094;2023-02-01T07:38:12;8.20;;;1.60;;
26211;SDS011;13951;49.516;6.094;2023-02-01T07:40:45;10.87;;;2.63;;
26211;SDS011;13951;49.516;6.094;2023-02-01T07:43:17;12.13;;;2.13;;
26211;SDS011;13951;49.516;6.094;2023-02-01T07:45:51;9.93;;;2.70;;
26211;SDS011;13951;49.516;6.094;2023-02-01T07:48:25;10.50;;;2.07;;
26211;SDS011;13951;49.516;6.094;2023-02-01T07:51:03;6.63;;;1.80;;
26211;SDS011;13951;49.516;6.094;2023-02-01T07:53:37;8.30;;;1.87;;
26211;SDS011;13951;49.516;6.094;2023-02-01T07:56:14;5.07;;;1.63;;
26211;SDS011;13951;49.516;6.094;2023-02-01T07:58:49;5.90;;;1.80;;
26211;SDS011;13951;49.516;6.094;2023-02-01T08:01:24;5.33;;;1.63;;
26211;SDS011;13951;49.516;6.094;2023-02-01T08:04:00;7.40;;;2.23;;
26211;SDS011;13951;49.516;6.094;2023-02-01T08:06:34;8.20;;;2.10;;
26211;SDS011;13951;49.516;6.094;2023-02-01T08:09:07;5.63;;;1.73;;
26211;SDS011;13951;49.516;6.094;2023-02-01T08:11:40;3.60;;;1.80;;
26211;SDS011;13951;49.516;6.094;2023-02-01T08:14:13;5.83;;;2.00;;
26211;SDS011;13951;49.516;6.094;2023-02-01T08:16:46;8.23;;;2.53;;
26211;SDS011;13951;49.516;6.094;2023-02-01T08:19:18;4.63;;;2.00;;
26211;SDS011;13951;49.516;6.094;2023-02-01T08:21:51;8.00;;;2.07;;
26211;SDS011;13951;49.516;6.094;2023-02-01T08:24:24;9.30;;;2.67;;
26211;SDS011;13951;49.516;6.094;2023-02-01T08:26:57;5.63;;;2.97;;
26211;SDS011;13951;49.516;6.094;2023-02-01T08:29:29;3.17;;;2.00;;
26211;SDS011;13951;49.516;6.094;2023-02-01T08:32:02;6.93;;;2.20;;
26211;SDS011;13951;49.516;6.094;2023-02-01T08:34:35;10.67;;;2.00;;
26211;SDS011;13951;49.516;6.094;2023-02-01T08:37:08;15.43;;;3.00;;
26211;SDS011;13951;49.516;6.094;2023-02-01T08:39:40;6.80;;;3.33;;
26211;SDS011;13951;49.516;6.094;2023-02-01T08:42:18;6.90;;;2.40;;
26211;SDS011;13951;49.516;6.094;2023-02-01T08:45:10;6.60;;;1.80;;
26211;SDS011;13951;49.516;6.094;2023-02-01T08:47:43;6.77;;;2.43;;
26211;SDS011;13951;49.516;6.094;2023-02-01T08:50:16;3.63;;;1.67;;
26211;SDS011;13951;49.516;6.094;2023-02-01T08:52:49;6.80;;;1.70;;
26211;SDS011;13951;49.516;6.094;2023-02-01T08:55:22;1.80;;;1.27;;
26211;SDS011;13951;49.516;6.094;2023-02-01T08:57:55;7.27;;;2.17;;
26211;SDS011;13951;49.516;6.094;2023-02-01T09:00:28;7.10;;;1.67;;
26211;SDS011;13951;49.516;6.094;2023-02-01T09:03:01;12.60;;;1.80;;
26211;SDS011;13951;49.516;6.094;2023-02-01T09:05:34;8.68;;;2.72;;
26211;SDS011;13951;49.516;6.094;2023-02-01T09:08:20;12.00;;;1.93;;
26211;SDS011;13951;49.516;6.094;2023-02-01T09:10:53;7.07;;;1.80;;
26211;SDS011;13951;49.516;6.094;2023-02-01T09:13:34;3.93;;;1.83;;
26211;SDS011;13951;49.516;6.094;2023-02-01T09:16:08;9.17;;;2.00;;
26211;SDS011;13951;49.516;6.094;2023-02-01T09:18:41;10.63;;;2.70;;
26211;SDS011;13951;49.516;6.094;2023-02-01T09:21:32;8.47;;;1.80;;
26211;SDS011;13951;49.516;6.094;2023-02-01T09:24:05;3.93;;;1.73;;
26211;SDS011;13951;49.516;6.094;2023-02-01T09:26:41;11.27;;;2.30;;
26211;SDS011;13951;49.516;6.094;2023-02-01T09:29:15;5.73;;;2.30;;
26211;SDS011;13951;49.516;6.094;2023-02-01T09:31:48;5.93;;;1.60;;
26211;SDS011;13951;49.516;6.094;2023-02-01T09:34:34;3.50;;;1.70;;
26211;SDS011;13951;49.516;6.094;2023-02-01T09:37:06;11.73;;;2.17;;
26211;SDS011;13951;49.516;6.094;2023-02-01T09:39:39;8.50;;;2.93;;
26211;SDS011;13951;49.516;6.094;2023-02-01T09:48:15;10.47;;;2.00;;
26211;SDS011;13951;49.516;6.094;2023-02-01T09:50:53;4.87;;;2.17;;
26211;SDS011;13951;49.516;6.094;2023-02-01T09:53:30;7.77;;;2.30;;
26211;SDS011;13951;49.516;6.094;2023-02-01T09:56:12;9.63;;;1.97;;
26211;SDS011;13951;49.516;6.094;2023-02-01T10:01:41;21.80;;;8.23;;
26211;SDS011;13951;49.516;6.094;2023-02-01T10:04:15;8.60;;;3.37;;
26211;SDS011;13951;49.516;6.094;2023-02-01T10:10:35;22.33;;;7.53;;
26211;SDS011;13951;49.516;6.094;2023-02-01T10:16:06;8.47;;;3.83;;
26211;SDS011;13951;49.516;6.094;2023-02-01T10:21:56;7.33;;;3.50;;
26211;SDS011;13951;49.516;6.094;2023-02-01T10:24:42;11.70;;;4.38;;
26211;SDS011;13951;49.516;6.094;2023-02-01T10:27:36;8.30;;;2.60;;
26211;SDS011;13951;49.516;6.094;2023-02-01T10:32:45;9.87;;;2.23;;
26211;SDS011;13951;49.516;6.094;2023-02-01T10:35:24;9.30;;;2.80;;
26211;SDS011;13951;49.516;6.094;2023-02-01T10:38:02;8.90;;;2.10;;
26211;SDS011;13951;49.516;6.094;2023-02-01T10:40:38;7.10;;;2.10;;
26211;SDS011;13951;49.516;6.094;2023-02-01T12:01:18;11.60;;;2.40;;
26211;SDS011;13951;49.516;6.094;2023-02-01T12:07:10;7.00;;;1.50;;
26211;SDS011;13951;49.516;6.094;2023-02-01T12:09:55;7.00;;;1.97;;
26211;SDS011;13951;49.516;6.094;2023-02-01T12:12:49;8.03;;;1.87;;
26211;SDS011;13951;49.516;6.094;2023-02-01T12:21:35;8.83;;;2.47;;
26211;SDS011;13951;49.516;6.094;2023-02-01T12:24:28;6.93;;;1.47;;
26211;SDS011;13951;49.516;6.094;2023-02-01T12:42:18;8.93;;;1.60;;
26211;SDS011;13951;49.516;6.094;2023-02-01T12:44:59;12.07;;;2.33;;
26211;SDS011;13951;49.516;6.094;2023-02-01T12:47:41;7.20;;;2.07;;
26211;SDS011;13951;49.516;6.094;2023-02-01T12:50:28;7.43;;;1.80;;
26211;SDS011;13951;49.516;6.094;2023-02-01T12:53:11;11.87;;;1.67;;
26211;SDS011;13951;49.516;6.094;2023-02-01T12:55:57;2.73;;;1.33;;
26211;SDS011;13951;49.516;6.094;2023-02-01T12:58:43;6.23;;;1.43;;
26211;SDS011;13951;49.516;6.094;2023-02-01T13:01:26;5.27;;;1.20;;
26211;SDS011;13951;49.516;6.094;2023-02-01T13:04:36;9.20;;;1.67;;
26211;SDS011;13951;49.516;6.094;2023-02-01T13:07:18;5.20;;;1.50;;
26211;SDS011;13951;49.516;6.094;2023-02-01T13:10:00;8.10;;;1.70;;
26211;SDS011;13951;49.516;6.094;2023-02-01T13:13:07;3.93;;;1.13;;
26211;SDS011;13951;49.516;6.094;2023-02-01T13:15:54;5.93;;;1.50;;
26211;SDS011;13951;49.516;6.094;2023-02-01T13:18:39;3.20;;;1.10;;
26211;SDS011;13951;49.516;6.094;2023-02-01T13:21:17;7.93;;;1.70;;
26211;SDS011;13951;49.516;6.094;2023-02-01T13:23:54;9.40;;;1.30;;
26211;SDS011;13951;49.516;6.094;2023-02-01T13:26:27;3.50;;;1.03;;
26211;SDS011;13951;49.516;6.094;2023-02-01T13:29:09;3.30;;;1.33;;
26211;SDS011;13951;49.516;6.094;2023-02-01T13:31:51;2.90;;;1.10;;
26211;SDS011;13951;49.516;6.094;2023-02-01T13:40:44;7.37;;;1.43;;
26211;SDS011;13951;49.516;6.094;2023-02-01T13:43:28;5.37;;;1.33;;
26211;SDS011;13951;49.516;6.094;2023-02-01T13:46:06;5.10;;;1.30;;
26211;SDS011;13951;49.516;6.094;2023-02-01T13:48:46;4.83;;;1.20;;
26211;SDS011;13951;49.516;6.094;2023-02-01T13:54:23;4.20;;;1.30;;
26211;SDS011;13951;49.516;6.094;2023-02-01T13:57:01;6.70;;;1.43;;
26211;SDS011;13951;49.516;6.094;2023-02-01T13:59:36;5.27;;;1.07;;
26211;SDS011;13951;49.516;6.094;2023-02-01T14:10:50;9.10;;;1.40;;
26211;SDS011;13951;49.516;6.094;2023-02-01T14:16:12;6.80;;;1.37;;
26211;SDS011;13951;49.516;6.094;2023-02-01T14:18:54;4.03;;;1.23;;
26211;SDS011;13951;49.516;6.094;2023-02-01T14:21:32;4.27;;;1.20;;
26211;SDS011;13951;49.516;6.094;2023-02-01T14:26:42;5.03;;;1.50;;
26211;SDS011;13951;49.516;6.094;2023-02-01T14:32:11;7.97;;;1.37;;
26211;SDS011;13951;49.516;6.094;2023-02-01T14:34:50;5.23;;;1.27;;
26211;SDS011;13951;49.516;6.094;2023-02-01T14:37:29;6.43;;;1.43;;
26211;SDS011;13951;49.516;6.094;2023-02-01T14:42:55;3.40;;;0.93;;
26211;SDS011;13951;49.516;6.094;2023-02-01T14:50:41;4.60;;;1.50;;
26211;SDS011;13951;49.516;6.094;2023-02-01T14:53:28;3.33;;;1.23;;
26211;SDS011;13951;49.516;6.094;2023-02-01T14:58:56;7.60;;;1.67;;
26211;SDS011;13951;49.516;6.094;2023-02-01T15:01:38;7.97;;;1.40;;
26211;SDS011;13951;49.516;6.094;2023-02-01T15:04:24;6.60;;;1.27;;
26211;SDS011;13951;49.516;6.094;2023-02-01T15:07:04;6.50;;;1.60;;
26211;SDS011;13951;49.516;6.094;2023-02-01T15:09:44;5.57;;;1.40;;
26211;SDS011;13951;49.516;6.094;2023-02-01T15:12:23;5.73;;;1.60;;
26211;SDS011;13951;49.516;6.094;2023-02-01T15:17:56;6.13;;;1.63;;
26211;SDS011;13951;49.516;6.094;2023-02-01T15:20:33;10.27;;;1.90;;
26211;SDS011;13951;49.516;6.094;2023-02-01T15:23:15;8.40;;;1.60;;
26211;SDS011;13951;49.516;6.094;2023-02-01T15:25:50;3.70;;;1.80;;
26211;SDS011;13951;49.516;6.094;2023-02-01T15:28:25;6.73;;;2.27;;
26211;SDS011;13951;49.516;6.094;2023-02-01T15:31:02;6.33;;;2.07;;
26211;SDS011;13951;49.516;6.094;2023-02-01T15:33:36;5.43;;;1.77;;
26211;SDS011;13951;49.516;6.094;2023-02-01T15:36:10;6.73;;;1.60;;
26211;SDS011;13951;49.516;6.094;2023-02-01T15:38:50;10.93;;;2.10;;
26211;SDS011;13951;49.516;6.094;2023-02-01T15:42:10;9.43;;;1.47;;
26211;SDS011;13951;49.516;6.094;2023-02-01T15:44:47;2.10;;;0.83;;
26211;SDS011;13951;49.516;6.094;2023-02-01T15:47:24;26.03;;;10.87;;
26211;SDS011;13951;49.516;6.094;2023-02-01T15:50:00;8.00;;;2.17;;
26211;SDS011;13951;49.516;6.094;2023-02-01T15:52:39;5.93;;;1.60;;
26211;SDS011;13951;49.516;6.094;2023-02-01T15:58:20;3.77;;;1.40;;
26211;SDS011;13951;49.516;6.094;2023-02-01T16:00:57;4.50;;;1.20;;
26211;SDS011;13951;49.516;6.094;2023-02-01T16:03:40;10.20;;;1.90;;
26211;SDS011;13951;49.516;6.094;2023-02-01T16:11:32;22.20;;;7.93;;
26211;SDS011;13951;49.516;6.094;2023-02-01T16:14:15;7.80;;;1.73;;
26211;SDS011;13951;49.516;6.094;2023-02-01T16:16:48;7.17;;;1.47;;
26211;SDS011;13951;49.516;6.094;2023-02-01T16:19:22;6.97;;;2.10;;
26211;SDS011;13951;49.516;6.094;2023-02-01T16:21:59;4.17;;;1.37;;
26211;SDS011;13951;49.516;6.094;2023-02-01T16:24:32;12.00;;;1.90;;
26211;SDS011;13951;49.516;6.094;2023-02-01T16:27:05;4.37;;;1.50;;
26211;SDS011;13951;49.516;6.094;2023-02-01T16:29:39;6.23;;;1.50;;
26211;SDS011;13951;49.516;6.094;2023-02-01T16:32:18;7.40;;;1.70;;
26211;SDS011;13951;49.516;6.094;2023-02-01T16:34:52;7.57;;;1.90;;
26211;SDS011;13951;49.516;6.094;2023-02-01T16:37:25;9.43;;;1.73;;
26211;SDS011;13951;49.516;6.094;2023-02-01T16:40:00;7.83;;;1.53;;
26211;SDS011;13951;49.516;6.094;2023-02-01T16:42:32;6.77;;;1.43;;
26211;SDS011;13951;49.516;6.094;2023-02-01T16:45:05;7.33;;;2.00;;
26211;SDS011;13951;49.516;6.094;2023-02-01T16:47:40;10.60;;;1.50;;
26211;SDS011;13951;49.516;6.094;2023-02-01T16:50:18;6.60;;;1.33;;
26211;SDS011;13951;49.516;6.094;2023-02-01T16:52:55;9.77;;;1.73;;
26211;SDS011;13951;49.516;6.094;2023-02-01T16:55:28;4.83;;;1.43;;
26211;SDS011;13951;49.516;6.094;2023-02-01T16:58:01;4.90;;;1.37;;
26211;SDS011;13951;49.516;6.094;2023-02-01T17:00:34;4.50;;;1.20;;
26211;SDS011;13951;49.516;6.094;2023-02-01T17:03:09;1.93;;;1.00;;
26211;SDS011;13951;49.516;6.094;2023-02-01T17:05:50;6.83;;;1.70;;
26211;SDS011;13951;49.516;6.094;2023-02-01T17:08:27;3.07;;;1.00;;
26211;SDS011;13951;49.516;6.094;2023-02-01T17:11:06;5.20;;;1.27;;
26211;SDS011;13951;49.516;6.094;2023-02-01T17:13:41;5.67;;;1.20;;
26211;SDS011;13951;49.516;6.094;2023-02-01T17:18:52;5.80;;;1.77;;
26211;SDS011;13951;49.516;6.094;2023-02-01T17:21:33;6.37;;;1.23;;
26211;SDS011;13951;49.516;6.094;2023-02-01T17:24:36;7.10;;;1.50;;
26211;SDS011;13951;49.516;6.094;2023-02-01T17:27:19;7.07;;;1.67;;
26211;SDS011;13951;49.516;6.094;2023-02-01T17:29:52;4.40;;;1.00;;
26211;SDS011;13951;49.516;6.094;2023-02-01T17:32:28;4.50;;;1.20;;
26211;SDS011;13951;49.516;6.094;2023-02-01T17:35:01;8.90;;;1.47;;
26211;SDS011;13951;49.516;6.094;2023-02-01T17:37:33;4.43;;;1.13;;
26211;SDS011;13951;49.516;6.094;2023-02-01T17:40:08;8.47;;;1.80;;
26211;SDS011;13951;49.516;6.094;2023-02-01T17:42:41;7.67;;;1.20;;
26211;SDS011;13951;49.516;6.094;2023-02-01T17:45:27;7.38;;;1.75;;
26211;SDS011;13951;49.516;6.094;2023-02-01T17:48:12;10.40;;;1.43;;
26211;SDS011;13951;49.516;6.094;2023-02-01T17:50:45;4.43;;;1.27;;
26211;SDS011;13951;49.516;6.094;2023-02-01T17:53:20;7.07;;;1.43;;
26211;SDS011;13951;49.516;6.094;2023-02-01T17:55:55;6.40;;;1.17;;
26211;SDS011;13951;49.516;6.094;2023-02-01T17:58:32;6.47;;;1.57;;
26211;SDS011;13951;49.516;6.094;2023-02-01T18:01:05;9.67;;;1.90;;
26211;SDS011;13951;49.516;6.094;2023-02-01T18:03:42;10.13;;;2.03;;
26211;SDS011;13951;49.516;6.094;2023-02-01T18:06:15;7.63;;;1.37;;
26211;SDS011;13951;49.516;6.094;2023-02-01T18:08:50;9.20;;;1.70;;
26211;SDS011;13951;49.516;6.094;2023-02-01T18:11:23;3.47;;;1.37;;
26211;SDS011;13951;49.516;6.094;2023-02-01T18:13:56;5.13;;;1.27;;
26211;SDS011;13951;49.516;6.094;2023-02-01T18:16:30;6.07;;;1.67;;
26211;SDS011;13951;49.516;6.094;2023-02-01T18:19:08;6.70;;;1.70;;
26211;SDS011;13951;49.516;6.094;2023-02-01T18:21:42;6.10;;;3.00;;
26211;SDS011;13951;49.516;6.094;2023-02-01T18:24:15;4.87;;;1.40;;
26211;SDS011;13951;49.516;6.094;2023-02-01T18:26:48;6.40;;;1.63;;
26211;SDS011;13951;49.516;6.094;2023-02-01T18:29:21;8.00;;;2.00;;
26211;SDS011;13951;49.516;6.094;2023-02-01T18:31:53;6.77;;;1.50;;
26211;SDS011;13951;49.516;6.094;2023-02-01T18:34:26;6.63;;;2.00;;
26211;SDS011;13951;49.516;6.094;2023-02-01T18:37:01;6.33;;;1.47;;
26211;SDS011;13951;49.516;6.094;2023-02-01T18:39:33;8.00;;;1.50;;
26211;SDS011;13951;49.516;6.094;2023-02-01T18:42:07;7.50;;;1.70;;
26211;SDS011;13951;49.516;6.094;2023-02-01T18:44:42;5.23;;;1.50;;
26211;SDS011;13951;49.516;6.094;2023-02-01T18:47:15;6.43;;;1.57;;
26211;SDS011;13951;49.516;6.094;2023-02-01T18:49:48;9.87;;;1.80;;
26211;SDS011;13951;49.516;6.094;2023-02-01T18:52:20;3.90;;;1.10;;
26211;SDS011;13951;49.516;6.094;2023-02-01T18:54:53;4.77;;;1.40;;
26211;SDS011;13951;49.516;6.094;2023-02-01T18:57:31;8.40;;;2.20;;
26211;SDS011;13951;49.516;6.094;2023-02-01T19:00:05;9.40;;;2.60;;
26211;SDS011;13951;49.516;6.094;2023-02-01T19:02:40;12.57;;;1.73;;
26211;SDS011;13951;49.516;6.094;2023-02-01T19:05:13;10.17;;;1.60;;
26211;SDS011;13951;49.516;6.094;2023-02-01T19:07:47;8.60;;;1.83;;